createdAt,value
2019-01-23T00:00:32.317Z,982.96
2019-01-23T00:01:32.295Z,982.94
2019-01-23T00:02:32.275Z,982.90
2019-01-23T00:03:32.262Z,982.89
2019-01-23T00:04:32.239Z,982.88
2019-01-23T00:05:32.227Z,982.88
2019-01-23T00:06:32.202Z,982.88
2019-01-23T00:07:32.183Z,982.92
2019-01-23T00:08:32.164Z,982.87
2019-01-23T00:09:32.146Z,982.87
2019-01-23T00:10:32.128Z,982.87
2019-01-23T00:11:32.109Z,982.86
2019-01-23T00:12:32.090Z,982.84
2019-01-23T00:13:32.073Z,982.81
2019-01-23T00:14:32.054Z,982.81
2019-01-23T00:15:32.036Z,982.83
2019-01-23T00:16:32.017Z,982.83
2019-01-23T00:17:31.999Z,982.80
2019-01-23T00:18:31.980Z,982.84
2019-01-23T00:19:31.961Z,982.78
2019-01-23T00:20:31.943Z,982.77
2019-01-23T00:21:31.924Z,982.80
2019-01-23T00:22:31.906Z,982.74
2019-01-23T00:23:31.886Z,982.72
2019-01-23T00:24:31.868Z,982.69
2019-01-23T00:25:31.850Z,982.71
2019-01-23T00:26:31.832Z,982.73
2019-01-23T00:27:31.811Z,982.66
2019-01-23T00:28:31.793Z,982.68
2019-01-23T00:29:31.777Z,982.70
2019-01-23T00:30:31.756Z,982.64
2019-01-23T00:31:31.739Z,982.60
2019-01-23T00:32:31.768Z,982.58
2019-01-23T00:33:31.700Z,982.57
2019-01-23T00:34:31.681Z,982.55
2019-01-23T00:35:31.663Z,982.56
2019-01-23T00:36:31.644Z,982.46
2019-01-23T00:37:31.626Z,982.47
2019-01-23T00:38:31.624Z,982.46
2019-01-23T00:39:31.589Z,982.45
2019-01-23T00:40:31.569Z,982.43
2019-01-23T00:41:31.550Z,982.43
2019-01-23T00:42:31.532Z,982.43
2019-01-23T00:43:31.512Z,982.46
2019-01-23T00:44:31.494Z,982.47
2019-01-23T00:45:31.475Z,982.45
2019-01-23T00:46:31.457Z,982.41
2019-01-23T00:47:31.437Z,982.40
2019-01-23T00:48:31.420Z,982.38
2019-01-23T00:49:31.400Z,982.41
2019-01-23T00:50:31.381Z,982.36
2019-01-23T00:51:31.362Z,982.37
2019-01-23T00:52:31.343Z,982.36
2019-01-23T00:53:31.324Z,982.37
2019-01-23T00:54:31.308Z,982.36
2019-01-23T00:55:31.286Z,982.35
2019-01-23T00:56:31.268Z,982.31
2019-01-23T00:57:31.250Z,982.29
2019-01-23T00:58:31.229Z,982.26
2019-01-23T00:59:31.209Z,982.30
2019-01-23T01:00:31.191Z,982.28
2019-01-23T01:01:31.172Z,982.30
2019-01-23T01:02:31.153Z,982.26
2019-01-23T01:03:31.133Z,982.28
2019-01-23T01:04:31.114Z,982.26
2019-01-23T01:05:31.095Z,982.26
2019-01-23T01:06:31.076Z,982.25
2019-01-23T01:07:31.056Z,982.26
2019-01-23T01:08:31.039Z,982.25
2019-01-23T01:09:31.019Z,982.25
2019-01-23T01:10:30.998Z,982.24
2019-01-23T01:11:30.978Z,982.27
2019-01-23T01:12:30.958Z,982.21
2019-01-23T01:13:30.940Z,982.24
2019-01-23T01:14:30.920Z,982.22
2019-01-23T01:15:30.901Z,982.25
2019-01-23T01:16:30.880Z,982.22
2019-01-23T01:17:30.862Z,982.20
2019-01-23T01:18:30.841Z,982.23
2019-01-23T01:19:30.820Z,982.21
2019-01-23T01:20:30.801Z,982.24
2019-01-23T01:21:30.781Z,982.23
2019-01-23T01:22:30.762Z,982.21
2019-01-23T01:23:30.741Z,982.21
2019-01-23T01:24:30.722Z,982.21
2019-01-23T01:25:30.702Z,982.26
2019-01-23T01:26:30.687Z,982.27
2019-01-23T01:27:30.664Z,982.25
2019-01-23T01:28:30.643Z,982.24
2019-01-23T01:29:30.622Z,982.24
2019-01-23T01:30:30.603Z,982.27
2019-01-23T01:31:30.582Z,982.29
2019-01-23T01:32:30.562Z,982.26
2019-01-23T01:33:33.963Z,982.25
2019-01-23T01:34:30.523Z,982.24
2019-01-23T01:35:30.507Z,982.23
2019-01-23T01:36:30.483Z,982.27
2019-01-23T01:37:30.462Z,982.26
2019-01-23T01:38:30.443Z,982.20
2019-01-23T01:39:30.422Z,982.25
2019-01-23T01:40:30.402Z,982.21
2019-01-23T01:41:30.384Z,982.23
2019-01-23T01:42:30.363Z,982.22
2019-01-23T01:43:30.344Z,982.23
2019-01-23T01:44:30.322Z,982.25
2019-01-23T01:45:30.303Z,982.23
2019-01-23T01:46:30.283Z,982.23
2019-01-23T01:47:30.262Z,982.21
2019-01-23T01:48:30.242Z,982.17
2019-01-23T01:49:30.224Z,982.14
2019-01-23T01:50:30.203Z,982.14
2019-01-23T01:51:30.182Z,982.12
2019-01-23T01:52:30.162Z,982.09
2019-01-23T01:53:30.144Z,982.09
2019-01-23T01:54:30.122Z,982.06
2019-01-23T01:55:30.106Z,982.09
2019-01-23T01:56:30.082Z,982.05
2019-01-23T01:57:30.070Z,982.04
2019-01-23T01:58:30.043Z,982.08
2019-01-23T01:59:30.022Z,982.07
2019-01-23T02:00:30.003Z,982.08
2019-01-23T02:01:29.982Z,982.06
2019-01-23T02:02:29.967Z,982.04
2019-01-23T02:03:30.378Z,982.04
2019-01-23T02:04:29.923Z,982.00
2019-01-23T02:05:29.903Z,982.00
2019-01-23T02:06:29.884Z,982.00
2019-01-23T02:07:29.864Z,982.00
2019-01-23T02:08:29.844Z,982.03
2019-01-23T02:09:35.462Z,982.04
2019-01-23T02:10:29.805Z,981.97
2019-01-23T02:11:29.784Z,981.99
2019-01-23T02:12:29.764Z,981.95
2019-01-23T02:13:29.744Z,981.93
2019-01-23T02:14:29.725Z,981.89
2019-01-23T02:15:29.704Z,981.90
2019-01-23T02:16:29.685Z,981.88
2019-01-23T02:17:29.664Z,981.86
2019-01-23T02:18:29.648Z,981.91
2019-01-23T02:19:29.625Z,981.85
2019-01-23T02:20:29.605Z,981.78
2019-01-23T02:21:29.585Z,981.82
2019-01-23T02:22:29.568Z,981.79
2019-01-23T02:23:29.545Z,981.79
2019-01-23T02:24:29.525Z,981.74
2019-01-23T02:25:29.506Z,981.71
2019-01-23T02:26:29.486Z,981.64
2019-01-23T02:27:29.465Z,981.60
2019-01-23T02:28:29.446Z,981.62
2019-01-23T02:29:29.426Z,981.62
2019-01-23T02:30:29.408Z,981.62
2019-01-23T02:31:29.386Z,981.57
2019-01-23T02:32:29.367Z,981.59
2019-01-23T02:33:29.347Z,981.53
2019-01-23T02:34:29.329Z,981.52
2019-01-23T02:35:29.308Z,981.51
2019-01-23T02:36:29.290Z,981.48
2019-01-23T02:37:29.269Z,981.45
2019-01-23T02:38:29.251Z,981.39
2019-01-23T02:39:29.230Z,981.41
2019-01-23T02:40:29.210Z,981.38
2019-01-23T02:41:29.191Z,981.36
2019-01-23T02:42:29.173Z,981.38
2019-01-23T02:43:29.153Z,981.32
2019-01-23T02:44:29.133Z,981.27
2019-01-23T02:45:29.114Z,981.24
2019-01-23T02:46:29.095Z,981.22
2019-01-23T02:47:29.076Z,981.23
2019-01-23T02:48:29.055Z,981.22
2019-01-23T02:49:29.036Z,981.23
2019-01-23T02:50:29.016Z,981.19
2019-01-23T02:51:28.996Z,981.18
2019-01-23T02:52:28.978Z,981.20
2019-01-23T02:53:28.960Z,981.18
2019-01-23T02:54:28.942Z,981.19
2019-01-23T02:55:28.918Z,981.13
2019-01-23T02:56:28.899Z,981.15
2019-01-23T02:57:28.880Z,981.10
2019-01-23T02:58:28.862Z,981.11
2019-01-23T02:59:29.529Z,981.07
2019-01-23T03:00:28.824Z,981.04
2019-01-23T03:01:28.803Z,981.04
2019-01-23T03:02:28.783Z,981.02
2019-01-23T03:03:28.763Z,981.01
2019-01-23T03:04:28.746Z,980.99
2019-01-23T03:05:28.724Z,981.01
2019-01-23T03:06:28.706Z,980.96
2019-01-23T03:07:28.684Z,980.95
2019-01-23T03:08:28.665Z,980.95
2019-01-23T03:09:28.646Z,980.97
2019-01-23T03:10:28.626Z,980.92
2019-01-23T03:11:28.606Z,980.92
2019-01-23T03:12:28.588Z,980.94
2019-01-23T03:13:28.573Z,980.82
2019-01-23T03:14:28.548Z,980.85
2019-01-23T03:15:28.529Z,980.86
2019-01-23T03:16:28.510Z,980.86
2019-01-23T03:17:28.489Z,980.87
2019-01-23T03:18:28.471Z,980.81
2019-01-23T03:19:28.451Z,980.83
2019-01-23T03:20:28.432Z,980.84
2019-01-23T03:21:28.411Z,980.82
2019-01-23T03:22:28.392Z,980.79
2019-01-23T03:23:28.371Z,980.83
2019-01-23T03:24:28.355Z,980.77
2019-01-23T03:25:28.333Z,980.75
2019-01-23T03:26:28.312Z,980.78
2019-01-23T03:27:28.292Z,980.75
2019-01-23T03:28:28.273Z,980.74
2019-01-23T03:29:28.253Z,980.76
2019-01-23T03:30:28.234Z,980.75
2019-01-23T03:31:28.214Z,980.75
2019-01-23T03:32:28.195Z,980.74
2019-01-23T03:33:28.194Z,980.74
2019-01-23T03:34:28.154Z,980.73
2019-01-23T03:35:28.134Z,980.71
2019-01-23T03:36:28.114Z,980.70
2019-01-23T03:37:28.094Z,980.70
2019-01-23T03:38:28.075Z,980.64
2019-01-23T03:39:28.055Z,980.64
2019-01-23T03:40:28.035Z,980.62
2019-01-23T03:41:28.017Z,980.61
2019-01-23T03:42:27.996Z,980.67
2019-01-23T03:43:27.975Z,980.69
2019-01-23T03:44:27.957Z,980.69
2019-01-23T03:45:27.937Z,980.69
2019-01-23T03:46:27.922Z,980.71
2019-01-23T03:47:27.899Z,980.66
2019-01-23T03:48:28.177Z,980.66
2019-01-23T03:49:27.858Z,980.69
2019-01-23T03:50:27.837Z,980.66
2019-01-23T03:51:27.817Z,980.68
2019-01-23T03:52:27.797Z,980.66
2019-01-23T03:53:27.778Z,980.64
2019-01-23T03:54:27.758Z,980.65
2019-01-23T03:55:27.739Z,980.66
2019-01-23T03:56:27.727Z,980.66
2019-01-23T03:57:27.699Z,980.67
2019-01-23T03:58:27.683Z,980.70
2019-01-23T03:59:32.205Z,980.68
2019-01-23T04:00:27.645Z,980.67
2019-01-23T04:01:27.621Z,980.64
2019-01-23T04:02:27.600Z,980.66
2019-01-23T04:03:27.580Z,980.66
2019-01-23T04:04:27.565Z,980.63
2019-01-23T04:05:27.543Z,980.64
2019-01-23T04:06:27.521Z,980.65
2019-01-23T04:07:27.500Z,980.59
2019-01-23T04:08:27.481Z,980.64
2019-01-23T04:09:27.462Z,980.64
2019-01-23T04:10:27.441Z,980.64
2019-01-23T04:11:27.423Z,980.64
2019-01-23T04:12:27.402Z,980.60
2019-01-23T04:13:27.382Z,980.63
2019-01-23T04:14:27.364Z,980.65
2019-01-23T04:15:27.345Z,980.61
2019-01-23T04:16:27.326Z,980.60
2019-01-23T04:17:27.303Z,980.59
2019-01-23T04:18:27.287Z,980.61
2019-01-23T04:19:27.265Z,980.60
2019-01-23T04:20:27.243Z,980.56
2019-01-23T04:21:27.226Z,980.56
2019-01-23T04:22:27.206Z,980.53
2019-01-23T04:23:27.184Z,980.57
2019-01-23T04:24:27.164Z,980.50
2019-01-23T04:25:27.145Z,980.53
2019-01-23T04:26:27.126Z,980.50
2019-01-23T04:27:27.105Z,980.54
2019-01-23T04:28:27.093Z,980.49
2019-01-23T04:29:27.068Z,980.52
2019-01-23T04:30:27.043Z,980.47
2019-01-23T04:31:27.031Z,980.49
2019-01-23T04:32:27.003Z,980.50
2019-01-23T04:33:26.990Z,980.51
2019-01-23T04:34:26.963Z,980.53
2019-01-23T04:35:26.946Z,980.50
2019-01-23T04:36:26.926Z,980.49
2019-01-23T04:37:26.903Z,980.46
2019-01-23T04:38:26.889Z,980.47
2019-01-23T04:39:26.866Z,980.43
2019-01-23T04:40:26.847Z,980.40
2019-01-23T04:41:26.822Z,980.41
2019-01-23T04:42:26.817Z,980.35
2019-01-23T04:43:26.782Z,980.39
2019-01-23T04:44:26.761Z,980.38
2019-01-23T04:45:26.741Z,980.40
2019-01-23T04:46:26.723Z,980.36
2019-01-23T04:47:26.701Z,980.37
2019-01-23T04:48:26.680Z,980.37
2019-01-23T04:49:26.663Z,980.39
2019-01-23T04:50:26.640Z,980.37
2019-01-23T04:51:26.619Z,980.39
2019-01-23T04:52:26.599Z,980.38
2019-01-23T04:53:26.580Z,980.35
2019-01-23T04:54:26.560Z,980.38
2019-01-23T04:55:26.539Z,980.34
2019-01-23T04:56:26.526Z,980.34
2019-01-23T04:57:26.500Z,980.32
2019-01-23T04:58:26.487Z,980.34
2019-01-23T04:59:26.459Z,980.34
2019-01-23T05:00:26.441Z,980.35
2019-01-23T05:01:26.419Z,980.36
2019-01-23T05:02:26.399Z,980.35
2019-01-23T05:03:26.387Z,980.33
2019-01-23T05:04:26.362Z,980.32
2019-01-23T05:05:26.340Z,980.30
2019-01-23T05:06:26.320Z,980.35
2019-01-23T05:07:26.298Z,980.29
2019-01-23T05:08:26.282Z,980.29
2019-01-23T05:09:26.274Z,980.31
2019-01-23T05:10:26.243Z,980.24
2019-01-23T05:11:26.217Z,980.24
2019-01-23T05:12:26.197Z,980.23
2019-01-23T05:13:26.177Z,980.27
2019-01-23T05:14:26.160Z,980.27
2019-01-23T05:15:26.136Z,980.26
2019-01-23T05:16:26.116Z,980.24
2019-01-23T05:17:26.097Z,980.24
2019-01-23T05:18:26.075Z,980.23
2019-01-23T05:19:26.057Z,980.21
2019-01-23T05:20:26.036Z,980.20
2019-01-23T05:21:26.040Z,980.18
2019-01-23T05:22:26.000Z,980.20
2019-01-23T05:23:25.978Z,980.17
2019-01-23T05:24:25.956Z,980.16
2019-01-23T05:25:25.941Z,980.12
2019-01-23T05:26:25.914Z,980.14
2019-01-23T05:27:25.895Z,980.12
2019-01-23T05:28:25.871Z,980.11
2019-01-23T05:29:25.854Z,980.11
2019-01-23T05:30:25.834Z,980.13
2019-01-23T05:31:25.815Z,980.10
2019-01-23T05:32:25.794Z,980.09
2019-01-23T05:33:25.772Z,980.10
2019-01-23T05:34:25.752Z,980.12
2019-01-23T05:35:25.729Z,980.09
2019-01-23T05:36:25.709Z,980.09
2019-01-23T05:37:25.690Z,980.09
2019-01-23T05:38:25.669Z,980.10
2019-01-23T05:39:25.648Z,980.13
2019-01-23T05:40:25.629Z,980.11
2019-01-23T05:41:25.608Z,980.11
2019-01-23T05:42:25.587Z,980.10
2019-01-23T05:43:25.567Z,980.07
2019-01-23T05:44:25.547Z,980.11
2019-01-23T05:45:25.529Z,980.10
2019-01-23T05:46:25.511Z,980.09
2019-01-23T05:47:25.486Z,980.08
2019-01-23T05:48:25.474Z,980.11
2019-01-23T05:49:25.445Z,980.08
2019-01-23T05:50:25.425Z,980.07
2019-01-23T05:51:25.406Z,980.04
2019-01-23T05:52:25.383Z,980.03
2019-01-23T05:53:25.364Z,980.02
2019-01-23T05:54:25.352Z,980.03
2019-01-23T05:55:25.325Z,980.02
2019-01-23T05:56:25.305Z,980.04
2019-01-23T05:57:25.281Z,980.03
2019-01-23T05:58:25.262Z,980.06
2019-01-23T05:59:25.239Z,980.04
2019-01-23T06:00:25.224Z,980.08
2019-01-23T06:01:25.200Z,980.04
2019-01-23T06:02:25.181Z,980.08
2019-01-23T06:03:25.164Z,980.09
2019-01-23T06:04:25.140Z,980.10
2019-01-23T06:05:25.118Z,980.07
2019-01-23T06:06:25.100Z,980.10
2019-01-23T06:07:25.077Z,980.08
2019-01-23T06:08:25.057Z,980.10
2019-01-23T06:09:25.037Z,980.08
2019-01-23T06:10:25.017Z,980.05
2019-01-23T06:11:24.995Z,980.07
2019-01-23T06:12:24.975Z,980.07
2019-01-23T06:13:24.955Z,980.06
2019-01-23T06:14:24.935Z,980.07
2019-01-23T06:15:24.913Z,980.07
2019-01-23T06:16:24.893Z,980.09
2019-01-23T06:17:24.880Z,980.10
2019-01-23T06:18:24.853Z,980.10
2019-01-23T06:19:24.835Z,980.10
2019-01-23T06:20:24.825Z,980.12
2019-01-23T06:21:24.791Z,980.13
2019-01-23T06:22:24.777Z,980.14
2019-01-23T06:23:24.749Z,980.16
2019-01-23T06:24:24.730Z,980.17
2019-01-23T06:25:24.754Z,980.12
2019-01-23T06:26:24.689Z,980.13
2019-01-23T06:27:24.667Z,980.12
2019-01-23T06:28:24.652Z,980.14
2019-01-23T06:29:24.630Z,980.12
2019-01-23T06:30:24.607Z,980.13
2019-01-23T06:31:24.586Z,980.13
2019-01-23T06:32:24.574Z,980.17
2019-01-23T06:33:24.550Z,980.15
2019-01-23T06:34:24.527Z,980.15
2019-01-23T06:35:24.508Z,980.19
2019-01-23T06:36:24.484Z,980.17
2019-01-23T06:37:24.468Z,980.18
2019-01-23T06:38:24.444Z,980.19
2019-01-23T06:39:24.422Z,980.19
2019-01-23T06:40:24.402Z,980.20
2019-01-23T06:41:24.384Z,980.21
2019-01-23T06:42:24.364Z,980.20
2019-01-23T06:43:24.341Z,980.23
2019-01-23T06:44:24.321Z,980.20
2019-01-23T06:45:24.302Z,980.19
2019-01-23T06:46:24.280Z,980.16
2019-01-23T06:47:24.261Z,980.15
2019-01-23T06:48:24.241Z,980.19
2019-01-23T06:49:24.219Z,980.14
2019-01-23T06:50:24.198Z,980.13
2019-01-23T06:51:24.223Z,980.14
2019-01-23T06:52:24.157Z,980.16
2019-01-23T06:53:24.137Z,980.14
2019-01-23T06:54:24.116Z,980.14
2019-01-23T06:55:24.096Z,980.16
2019-01-23T06:56:24.075Z,980.16
2019-01-23T06:57:24.055Z,980.18
2019-01-23T06:58:24.039Z,980.24
2019-01-23T06:59:24.013Z,980.24
2019-01-23T07:00:23.995Z,980.23
2019-01-23T07:01:23.974Z,980.24
2019-01-23T07:02:23.952Z,980.27
2019-01-23T07:03:23.937Z,980.24
2019-01-23T07:04:23.911Z,980.28
2019-01-23T07:05:23.890Z,980.28
2019-01-23T07:06:23.871Z,980.33
2019-01-23T07:07:23.849Z,980.38
2019-01-23T07:08:23.829Z,980.33
2019-01-23T07:09:23.809Z,980.37
2019-01-23T07:10:23.789Z,980.39
2019-01-23T07:11:23.767Z,980.35
2019-01-23T07:12:23.750Z,980.37
2019-01-23T07:13:23.727Z,980.40
2019-01-23T07:14:23.706Z,980.39
2019-01-23T07:15:23.685Z,980.36
2019-01-23T07:16:23.665Z,980.41
2019-01-23T07:17:23.644Z,980.43
2019-01-23T07:18:23.629Z,980.51
2019-01-23T07:19:23.603Z,980.47
2019-01-23T07:20:23.585Z,980.53
2019-01-23T07:21:23.563Z,980.52
2019-01-23T07:22:23.549Z,980.52
2019-01-23T07:23:23.525Z,980.54
2019-01-23T07:24:23.503Z,980.56
2019-01-23T07:25:23.481Z,980.53
2019-01-23T07:26:23.463Z,980.53
2019-01-23T07:27:23.440Z,980.55
2019-01-23T07:28:23.423Z,980.55
2019-01-23T07:29:23.400Z,980.54
2019-01-23T07:31:23.358Z,980.52
2019-01-23T07:32:23.337Z,980.54
2019-01-23T07:33:23.327Z,980.53
2019-01-23T07:34:23.301Z,980.55
2019-01-23T07:35:23.276Z,980.52
2019-01-23T07:36:23.513Z,980.52
2019-01-23T07:37:23.237Z,980.51
2019-01-23T07:38:23.215Z,980.54
2019-01-23T07:39:23.194Z,980.51
2019-01-23T07:40:23.174Z,980.52
2019-01-23T07:41:23.152Z,980.55
2019-01-23T07:42:23.132Z,980.55
2019-01-23T07:43:23.115Z,980.55
2019-01-23T07:44:23.092Z,980.57
2019-01-23T07:45:23.072Z,980.54
2019-01-23T07:46:23.049Z,980.58
2019-01-23T07:47:23.028Z,980.56
2019-01-23T07:48:23.010Z,980.54
2019-01-23T07:49:22.987Z,980.56
2019-01-23T07:50:22.967Z,980.55
2019-01-23T07:51:22.946Z,980.57
2019-01-23T07:52:22.925Z,980.57
2019-01-23T07:53:22.905Z,980.51
2019-01-23T07:54:22.934Z,980.59
2019-01-23T07:55:22.866Z,980.57
2019-01-23T07:56:22.843Z,980.55
2019-01-23T07:57:22.823Z,980.59
2019-01-23T07:58:22.805Z,980.60
2019-01-23T07:59:22.781Z,980.60
2019-01-23T08:00:22.761Z,980.62
2019-01-23T08:01:22.743Z,980.55
2019-01-23T08:02:22.721Z,980.59
2019-01-23T08:03:22.699Z,980.57
2019-01-23T08:04:22.679Z,980.54
2019-01-23T08:05:22.659Z,980.54
2019-01-23T08:06:22.639Z,980.54
2019-01-23T08:07:22.618Z,980.57
2019-01-23T08:08:22.600Z,980.57
2019-01-23T08:09:22.579Z,980.60
2019-01-23T08:10:22.559Z,980.56
2019-01-23T08:11:22.537Z,980.59
2019-01-23T08:12:22.518Z,980.60
2019-01-23T08:13:22.498Z,980.59
2019-01-23T08:14:22.477Z,980.60
2019-01-23T08:15:22.459Z,980.56
2019-01-23T08:16:22.436Z,980.60
2019-01-23T08:17:22.417Z,980.58
2019-01-23T08:18:22.397Z,980.60
2019-01-23T08:19:22.376Z,980.60
2019-01-23T08:20:22.356Z,980.58
2019-01-23T08:21:22.337Z,980.61
2019-01-23T08:22:22.316Z,980.63
2019-01-23T08:23:22.296Z,980.58
2019-01-23T08:24:22.278Z,980.58
2019-01-23T08:25:22.258Z,980.58
2019-01-23T08:26:22.238Z,980.53
2019-01-23T08:27:22.217Z,980.57
2019-01-23T08:28:22.199Z,980.59
2019-01-23T08:29:22.178Z,980.59
2019-01-23T08:30:22.159Z,980.62
2019-01-23T08:31:22.140Z,980.60
2019-01-23T08:32:22.121Z,980.59
2019-01-23T08:33:22.101Z,980.56
2019-01-23T08:34:22.081Z,980.59
2019-01-23T08:35:22.060Z,980.62
2019-01-23T08:36:22.042Z,980.60
2019-01-23T08:37:22.022Z,980.63
2019-01-23T08:38:22.005Z,980.62
2019-01-23T08:39:21.983Z,980.68
2019-01-23T08:40:21.964Z,980.69
2019-01-23T08:41:21.944Z,980.72
2019-01-23T08:42:21.925Z,980.73
2019-01-23T08:43:21.905Z,980.74
2019-01-23T08:44:21.886Z,980.72
2019-01-23T08:45:21.866Z,980.76
2019-01-23T08:46:21.849Z,980.77
2019-01-23T08:47:21.827Z,980.75
2019-01-23T08:48:21.809Z,980.81
2019-01-23T08:49:21.790Z,980.78
2019-01-23T08:50:21.771Z,980.78
2019-01-23T08:51:21.754Z,980.80
2019-01-23T08:52:21.733Z,980.80
2019-01-23T08:53:21.714Z,980.82
2019-01-23T08:54:21.696Z,980.81
2019-01-23T08:55:22.966Z,980.84
2019-01-23T08:56:21.658Z,980.82
2019-01-23T08:57:21.640Z,980.83
2019-01-23T08:58:21.624Z,980.85
2019-01-23T08:59:21.603Z,980.86
2019-01-23T09:00:21.584Z,980.80
2019-01-23T09:01:21.567Z,980.83
2019-01-23T09:02:21.548Z,980.80
2019-01-23T09:03:21.529Z,980.79
2019-01-23T09:04:21.511Z,980.77
2019-01-23T09:05:21.493Z,980.77
2019-01-23T09:06:21.893Z,980.75
2019-01-23T09:07:21.455Z,980.75
2019-01-23T09:08:21.441Z,980.77
2019-01-23T09:09:21.420Z,980.76
2019-01-23T09:10:21.402Z,980.79
2019-01-23T09:11:21.382Z,980.80
2019-01-23T09:12:21.364Z,980.81
2019-01-23T09:13:21.347Z,980.85
2019-01-23T09:14:21.331Z,980.84
2019-01-23T09:15:21.311Z,980.86
2019-01-23T09:16:21.292Z,980.86
2019-01-23T09:17:21.274Z,980.85
2019-01-23T09:18:21.258Z,980.88
2019-01-23T09:19:21.238Z,980.93
2019-01-23T09:20:21.218Z,980.93
2019-01-23T09:21:21.201Z,980.92
2019-01-23T09:22:21.183Z,980.94
2019-01-23T09:23:21.163Z,980.98
2019-01-23T09:24:21.145Z,980.98
2019-01-23T09:25:21.127Z,980.99
2019-01-23T09:26:21.109Z,980.96
2019-01-23T09:27:21.098Z,981.01
2019-01-23T09:28:21.072Z,981.01
2019-01-23T09:29:21.054Z,981.03
2019-01-23T09:30:21.036Z,981.04
2019-01-23T09:31:21.016Z,981.09
2019-01-23T09:32:20.998Z,981.08
2019-01-23T09:33:20.981Z,981.10
2019-01-23T09:34:20.962Z,981.12
2019-01-23T09:35:20.943Z,981.11
2019-01-23T09:36:20.925Z,981.17
2019-01-23T09:37:20.910Z,981.14
2019-01-23T09:38:20.889Z,981.16
2019-01-23T09:39:20.869Z,981.18
2019-01-23T09:40:20.853Z,981.18
2019-01-23T09:41:20.888Z,981.20
2019-01-23T09:42:20.814Z,981.18
2019-01-23T09:43:20.795Z,981.21
2019-01-23T09:44:20.777Z,981.21
2019-01-23T09:45:20.758Z,981.24
2019-01-23T09:46:20.740Z,981.22
2019-01-23T09:47:20.721Z,981.24
2019-01-23T09:48:20.703Z,981.24
2019-01-23T09:49:20.685Z,981.29
2019-01-23T09:50:20.667Z,981.27
2019-01-23T09:51:20.648Z,981.30
2019-01-23T09:52:20.631Z,981.31
2019-01-23T09:53:20.612Z,981.27
2019-01-23T09:54:20.595Z,981.33
2019-01-23T09:55:20.576Z,981.35
2019-01-23T09:56:20.560Z,981.32
2019-01-23T09:57:20.542Z,981.31
2019-01-23T09:58:20.527Z,981.36
2019-01-23T09:59:20.506Z,981.36
2019-01-23T10:00:20.488Z,981.37
2019-01-23T10:01:20.475Z,981.38
2019-01-23T10:02:20.454Z,981.40
2019-01-23T10:03:23.044Z,981.37
2019-01-23T10:04:20.418Z,981.40
2019-01-23T10:05:20.402Z,981.39
2019-01-23T10:06:20.387Z,981.42
2019-01-23T10:07:20.365Z,981.42
2019-01-23T10:08:20.348Z,981.40
2019-01-23T10:09:20.330Z,981.43
2019-01-23T10:10:20.350Z,981.39
2019-01-23T10:11:20.295Z,981.43
2019-01-23T10:12:20.277Z,981.41
2019-01-23T10:13:20.260Z,981.43
2019-01-23T10:14:20.284Z,981.40
2019-01-23T10:15:20.228Z,981.41
2019-01-23T10:16:20.207Z,981.43
2019-01-23T10:17:20.190Z,981.46
2019-01-23T10:18:20.173Z,981.44
2019-01-23T10:19:20.154Z,981.46
2019-01-23T10:20:20.137Z,981.46
2019-01-23T10:21:20.123Z,981.45
2019-01-23T10:22:20.103Z,981.42
2019-01-23T10:23:20.084Z,981.43
2019-01-23T10:24:20.071Z,981.47
2019-01-23T10:25:20.050Z,981.43
2019-01-23T10:26:20.037Z,981.37
2019-01-23T10:27:20.015Z,981.42
2019-01-23T10:28:19.999Z,981.46
2019-01-23T10:29:20.019Z,981.47
2019-01-23T10:30:19.964Z,981.43
2019-01-23T10:31:19.945Z,981.47
2019-01-23T10:32:19.928Z,981.43
2019-01-23T10:33:19.913Z,981.49
2019-01-23T10:34:19.896Z,981.51
2019-01-23T10:35:19.874Z,981.55
2019-01-23T10:36:19.857Z,981.62
2019-01-23T10:37:19.840Z,981.54
2019-01-23T10:38:20.834Z,981.56
2019-01-23T10:39:19.805Z,981.60
2019-01-23T10:40:19.789Z,981.55
2019-01-23T10:41:19.771Z,981.60
2019-01-23T10:42:19.753Z,981.61
2019-01-23T10:43:19.735Z,981.62
2019-01-23T10:44:19.719Z,981.60
2019-01-23T10:45:19.707Z,981.59
2019-01-23T10:46:19.685Z,981.63
2019-01-23T10:47:19.666Z,981.63
2019-01-23T10:48:19.649Z,981.64
2019-01-23T10:49:19.633Z,981.59
2019-01-23T10:50:19.614Z,981.65
2019-01-23T10:51:19.597Z,981.61
2019-01-23T10:52:19.579Z,981.62
2019-01-23T10:53:19.562Z,981.61
2019-01-23T10:54:19.545Z,981.58
2019-01-23T10:55:19.526Z,981.59
2019-01-23T10:56:19.509Z,981.62
2019-01-23T10:57:19.494Z,981.59
2019-01-23T10:58:19.474Z,981.62
2019-01-23T10:59:19.459Z,981.65
2019-01-23T11:00:19.439Z,981.64
2019-01-23T11:01:19.422Z,981.61
2019-01-23T11:02:19.406Z,981.61
2019-01-23T11:03:19.387Z,981.63
2019-01-23T11:04:19.370Z,981.62
2019-01-23T11:05:19.356Z,981.66
2019-01-23T11:06:19.336Z,981.64
2019-01-23T11:07:19.318Z,981.63
2019-01-23T11:08:19.301Z,981.65
2019-01-23T11:09:19.329Z,981.66
2019-01-23T11:10:19.268Z,981.63
2019-01-23T11:11:19.249Z,981.66
2019-01-23T11:12:19.232Z,981.65
2019-01-23T11:13:19.215Z,981.64
2019-01-23T11:14:19.221Z,981.70
2019-01-23T11:15:19.181Z,981.69
2019-01-23T11:16:19.164Z,981.65
2019-01-23T11:17:19.148Z,981.69
2019-01-23T11:18:19.131Z,981.69
2019-01-23T11:19:19.114Z,981.73
2019-01-23T11:20:19.097Z,981.71
2019-01-23T11:21:19.083Z,981.74
2019-01-23T11:22:19.063Z,981.79
2019-01-23T11:23:19.046Z,981.79
2019-01-23T11:24:19.036Z,981.78
2019-01-23T11:25:19.043Z,981.78
2019-01-23T11:26:19.267Z,981.77
2019-01-23T11:27:18.982Z,981.80
2019-01-23T11:28:18.963Z,981.80
2019-01-23T11:29:18.949Z,981.80
2019-01-23T11:30:18.930Z,981.84
2019-01-23T11:31:20.418Z,981.84
2019-01-23T11:32:18.895Z,981.84
2019-01-23T11:33:18.879Z,981.87
2019-01-23T11:34:18.862Z,981.88
2019-01-23T11:35:18.845Z,981.89
2019-01-23T11:36:18.830Z,981.92
2019-01-23T11:37:18.812Z,981.88
2019-01-23T11:38:18.799Z,981.91
2019-01-23T11:39:18.780Z,981.92
2019-01-23T11:40:18.763Z,981.91
2019-01-23T11:41:18.747Z,981.92
2019-01-23T11:42:18.729Z,981.92
2019-01-23T11:43:18.712Z,981.95
2019-01-23T11:44:18.696Z,981.97
2019-01-23T11:45:18.679Z,982.00
2019-01-23T11:46:18.665Z,981.94
2019-01-23T11:47:18.646Z,981.98
2019-01-23T11:48:18.630Z,981.95
2019-01-23T11:49:18.613Z,981.95
2019-01-23T11:50:22.869Z,981.94
2019-01-23T11:51:18.582Z,981.99
2019-01-23T11:52:18.563Z,981.96
2019-01-23T11:53:18.547Z,981.98
2019-01-23T11:54:18.530Z,981.97
2019-01-23T11:55:18.514Z,981.96
2019-01-23T11:56:18.496Z,982.03
2019-01-23T11:57:18.480Z,982.03
2019-01-23T11:58:18.463Z,982.00
2019-01-23T11:59:18.449Z,982.00
2019-01-23T12:00:18.429Z,982.00
2019-01-23T12:01:18.419Z,982.02
2019-01-23T12:02:18.396Z,982.06
2019-01-23T12:03:21.012Z,982.03
2019-01-23T12:04:18.362Z,982.05
2019-01-23T12:05:18.346Z,982.07
2019-01-23T12:06:18.330Z,982.07
2019-01-23T12:07:18.311Z,982.08
2019-01-23T12:08:18.296Z,982.10
2019-01-23T12:09:18.279Z,982.11
2019-01-23T12:10:18.263Z,982.11
2019-01-23T12:11:18.246Z,982.11
2019-01-23T12:12:18.231Z,982.14
2019-01-23T12:13:18.214Z,982.15
2019-01-23T12:14:18.197Z,982.11
2019-01-23T12:15:18.180Z,982.05
2019-01-23T12:16:18.164Z,982.12
2019-01-23T12:17:18.149Z,982.13
2019-01-23T12:18:18.132Z,982.11
2019-01-23T12:19:18.116Z,982.12
2019-01-23T12:20:18.098Z,982.09
2019-01-23T12:21:18.083Z,982.15
2019-01-23T12:22:18.065Z,982.18
2019-01-23T12:23:18.049Z,982.15
2019-01-23T12:24:18.038Z,982.20
2019-01-23T12:25:18.015Z,982.16
2019-01-23T12:26:17.999Z,982.20
2019-01-23T12:27:17.981Z,982.21
2019-01-23T12:28:17.965Z,982.20
2019-01-23T12:29:17.950Z,982.24